Time;durP1;ratioP1;P1;durP2;ratioP2;P2;SDS_P1;SDS_P2;PMS_P1;PMS_P2;Temp;Humidity;BMP_temperature;BMP_pressure;BME280_temperature;BME280_humidity;BME280_pressure;Samples;Min_cycle;Max_cycle;Signal;HPM_P1;HPM_P2
2022/05/13 00:02:25;;;;;;;6.22;3.88;;;;;;;;;;5033628;28;20049;-25
2022/05/13 00:04:51;;;;;;;6.80;4.22;;;;;;;;;;5051480;28;20037;-25
2022/05/13 00:07:17;;;;;;;7.63;4.03;;;;;;;;;;5051157;28;20483;-25
2022/05/13 00:10:05;;;;;;;6.25;4.40;;;;;;;;;;5050823;28;20043;-26
2022/05/13 00:12:32;;;;;;;5.72;3.75;;;;;;;;;;5051813;28;20478;-25
2022/05/13 00:15:00;;;;;;;7.25;4.28;;;;;;;;;;5051720;28;20502;-25
2022/05/13 00:17:26;;;;;;;6.35;4.03;;;;;;;;;;5051436;28;20045;-26
2022/05/13 00:19:52;;;;;;;5.90;4.20;;;;;;;;;;5054395;28;20094;-25
2022/05/13 00:22:19;;;;;;;6.03;3.80;;;;;;;;;;5055854;28;20231;-25
2022/05/13 00:24:45;;;;;;;5.18;3.53;;;;;;;;;;5056127;28;20445;-24
2022/05/13 00:27:11;;;;;;;8.05;4.38;;;;;;;;;;5043105;28;20041;-25
2022/05/13 00:29:37;;;;;;;4.88;3.70;;;;;;;;;;5035981;28;20080;-26
2022/05/13 00:32:04;;;;;;;4.80;3.33;;;;;;;;;;5035589;28;20048;-24
2022/05/13 00:34:30;;;;;;;5.15;3.60;;;;;;;;;;5035496;28;20041;-25
2022/05/13 00:36:56;;;;;;;4.28;3.38;;;;;;;;;;5035850;28;20042;-27
2022/05/13 00:39:22;;;;;;;9.15;3.92;;;;;;;;;;5017690;28;20041;-25
2022/05/13 00:41:48;;;;;;;6.57;3.65;;;;;;;;;;5035732;28;20399;-24
2022/05/13 00:44:15;;;;;;;4.13;3.28;;;;;;;;;;5035414;28;20033;-25
2022/05/13 00:46:41;;;;;;;3.63;3.10;;;;;;;;;;5035404;28;20043;-24
2022/05/13 00:49:12;;;;;;;3.53;3.15;;;;;;;;;;5035132;28;20092;-26
2022/05/13 00:51:43;;;;;;;8.10;3.47;;;;;;;;;;5034921;28;20045;-25
2022/05/13 00:54:14;;;;;;;6.47;3.50;;;;;;;;;;5035895;28;20051;-25
2022/05/13 00:56:42;;;;;;;4.63;3.00;;;;;;;;;;5035212;28;20033;-25
2022/05/13 00:59:10;;;;;;;8.05;3.30;;;;;;;;;;5034911;28;20049;-26
2022/05/13 01:01:37;;;;;;;6.18;3.00;;;;;;;;;;5000953;28;20041;-25
2022/05/13 01:04:04;;;;;;;5.30;2.85;;;;;;;;;;5035477;28;20160;-25
2022/05/13 01:06:30;;;;;;;5.95;3.30;;;;;;;;;;5035559;28;20498;-24
2022/05/13 01:08:56;;;;;;;5.57;3.30;;;;;;;;;;5035200;28;20487;-24
2022/05/13 01:11:28;;;;;;;5.45;2.75;;;;;;;;;;5035618;28;20056;-26
2022/05/13 01:14:01;;;;;;;4.20;2.67;;;;;;;;;;5035351;28;20069;-27
2022/05/13 01:16:27;;;;;;;4.47;3.17;;;;;;;;;;5035164;28;20129;-25
2022/05/13 01:18:53;;;;;;;6.18;3.13;;;;;;;;;;5034616;28;20502;-25
2022/05/13 01:21:21;;;;;;;4.00;2.72;;;;;;;;;;5034875;28;20046;-26
2022/05/13 01:23:47;;;;;;;5.90;2.90;;;;;;;;;;5000557;28;20041;-26
2022/05/13 01:26:30;;;;;;;4.45;2.80;;;;;;;;;;5035089;28;20440;-25
2022/05/13 01:28:57;;;;;;;5.40;2.90;;;;;;;;;;5043189;28;20441;-25
2022/05/13 01:31:23;;;;;;;4.03;2.80;;;;;;;;;;5054642;28;20538;-34
2022/05/13 01:33:49;;;;;;;9.20;2.80;;;;;;;;;;5051202;28;20507;-33
2022/05/13 01:36:15;;;;;;;5.05;2.75;;;;;;;;;;5016307;28;20084;-26
2022/05/13 01:38:42;;;;;;;5.88;3.17;;;;;;;;;;5034946;28;20038;-26
2022/05/13 01:41:09;;;;;;;5.65;3.10;;;;;;;;;;5047295;28;20102;-28
2022/05/13 01:43:36;;;;;;;4.20;2.70;;;;;;;;;;5043838;28;20060;-27
2022/05/13 01:46:02;;;;;;;7.55;2.80;;;;;;;;;;5045035;28;20068;-29
2022/05/13 01:48:29;;;;;;;6.70;3.20;;;;;;;;;;5053858;28;20037;-27
2022/05/13 01:50:55;;;;;;;5.78;3.38;;;;;;;;;;5053772;28;20041;-29
2022/05/13 01:53:21;;;;;;;5.22;3.00;;;;;;;;;;5046600;28;20139;-30
2022/05/13 01:55:47;;;;;;;4.53;3.05;;;;;;;;;;5053249;28;20402;-29
2022/05/13 01:58:16;;;;;;;5.35;3.28;;;;;;;;;;5053595;28;20080;-27
2022/05/13 02:00:43;;;;;;;5.70;2.63;;;;;;;;;;5053901;28;20103;-28
2022/05/13 02:05:54;;;;;;;7.47;3.30;;;;;;;;;;5052725;28;20577;-30
2022/05/13 02:08:20;;;;;;;5.00;3.00;;;;;;;;;;5046840;28;20045;-27
2022/05/13 02:10:46;;;;;;;3.50;2.72;;;;;;;;;;5037338;28;20129;-27
2022/05/13 02:13:13;;;;;;;4.20;3.33;;;;;;;;;;5050378;28;20041;-29
2022/05/13 02:15:39;;;;;;;3.10;2.80;;;;;;;;;;5052809;28;20056;-29
2022/05/13 02:18:06;;;;;;;5.05;2.72;;;;;;;;;;5038989;28;20522;-30
2022/05/13 02:20:32;;;;;;;6.20;2.65;;;;;;;;;;5041525;28;20029;-29
2022/05/13 02:22:58;;;;;;;4.25;2.60;;;;;;;;;;5032638;28;20120;-30
2022/05/13 02:25:25;;;;;;;7.13;3.15;;;;;;;;;;5053251;28;20390;-29
2022/05/13 02:27:51;;;;;;;4.10;2.78;;;;;;;;;;5052662;28;20043;-30
2022/05/13 02:30:18;;;;;;;4.55;3.10;;;;;;;;;;5054017;28;20048;-28
2022/05/13 02:32:44;;;;;;;4.93;3.22;;;;;;;;;;5052342;28;20049;-30
2022/05/13 02:35:11;;;;;;;3.40;3.08;;;;;;;;;;5044160;28;20044;-30
2022/05/13 02:37:37;;;;;;;4.50;2.67;;;;;;;;;;5045393;28;20037;-30
2022/05/13 02:40:04;;;;;;;5.05;3.00;;;;;;;;;;5053127;28;20063;-29
2022/05/13 02:42:30;;;;;;;5.80;3.13;;;;;;;;;;5049397;28;20102;-30
2022/05/13 02:44:56;;;;;;;5.15;2.97;;;;;;;;;;5052319;28;20044;-29
2022/05/13 02:47:22;;;;;;;5.18;3.50;;;;;;;;;;5032701;28;20037;-31
2022/05/13 02:50:17;;;;;;;5.50;3.10;;;;;;;;;;5032397;28;20479;-31
2022/05/13 02:52:34;;;;;;;4.25;3.30;;;;;;;;;;5032571;28;20068;-30
2022/05/13 02:55:00;;;;;;;6.68;3.08;;;;;;;;;;5032396;28;20403;-29
2022/05/13 02:57:26;;;;;;;7.15;3.30;;;;;;;;;;5046132;28;20045;-33
2022/05/13 02:59:52;;;;;;;8.02;3.03;;;;;;;;;;5009198;28;20064;-31
2022/05/13 03:02:18;;;;;;;5.30;2.90;;;;;;;;;;5048225;28;20124;-29
2022/05/13 03:04:44;;;;;;;4.93;3.25;;;;;;;;;;5030871;28;20103;-31
2022/05/13 03:07:10;;;;;;;7.60;3.22;;;;;;;;;;5042616;28;20486;-30
2022/05/13 03:09:36;;;;;;;5.40;3.13;;;;;;;;;;5051633;28;20094;-31
2022/05/13 03:12:03;;;;;;;5.38;2.83;;;;;;;;;;5034196;28;20119;-30
2022/05/13 03:14:29;;;;;;;4.43;2.50;;;;;;;;;;5052052;28;20075;-29
2022/05/13 03:16:55;;;;;;;8.60;3.38;;;;;;;;;;5051549;28;20041;-29
2022/05/13 03:19:21;;;;;;;4.68;2.50;;;;;;;;;;5051144;28;20053;-28
2022/05/13 03:21:47;;;;;;;7.82;3.17;;;;;;;;;;5052370;28;20095;-29
2022/05/13 03:24:13;;;;;;;6.72;2.60;;;;;;;;;;5051686;28;20041;-29
2022/05/13 03:26:39;;;;;;;6.78;3.03;;;;;;;;;;5051320;28;20041;-30
2022/05/13 03:29:05;;;;;;;4.53;2.60;;;;;;;;;;5051565;28;20112;-33
2022/05/13 03:31:34;;;;;;;5.43;2.83;;;;;;;;;;5051664;28;20391;-29
2022/05/13 03:34:00;;;;;;;8.00;3.25;;;;;;;;;;5051229;28;20130;-29
2022/05/13 03:36:26;;;;;;;5.68;2.90;;;;;;;;;;5051574;28;20049;-29
2022/05/13 03:38:52;;;;;;;5.93;2.78;;;;;;;;;;5050929;28;20037;-29
2022/05/13 03:41:18;;;;;;;5.43;2.75;;;;;;;;;;5051126;28;20068;-30
2022/05/13 03:43:44;;;;;;;5.50;2.88;;;;;;;;;;5051661;28;20412;-28
2022/05/13 03:46:10;;;;;;;5.85;2.70;;;;;;;;;;5051657;28;20044;-30
2022/05/13 03:48:36;;;;;;;6.95;3.20;;;;;;;;;;5032615;28;20123;-28
2022/05/13 03:51:03;;;;;;;8.88;2.97;;;;;;;;;;5051058;28;20119;-30
2022/05/13 03:53:29;;;;;;;6.63;2.83;;;;;;;;;;5051401;28;20037;-30
2022/05/13 03:55:55;;;;;;;5.53;3.35;;;;;;;;;;5051160;28;20124;-30
2022/05/13 03:58:22;;;;;;;7.50;3.00;;;;;;;;;;5050752;28;20041;-30
2022/05/13 04:00:48;;;;;;;8.85;3.05;;;;;;;;;;5033583;28;20041;-29
2022/05/13 04:03:14;;;;;;;8.88;3.17;;;;;;;;;;5051078;28;20076;-29
2022/05/13 04:11:10;;;;;;;6.57;2.70;;;;;;;;;;5031315;28;20046;-30
2022/05/13 04:16:21;;;;;;;9.70;2.80;;;;;;;;;;5051173;28;20287;-29
2022/05/13 04:18:50;;;;;;;6.05;3.00;;;;;;;;;;5050614;28;20041;-29
2022/05/13 04:21:28;;;;;;;6.68;2.83;;;;;;;;;;5050327;28;20045;-29
2022/05/13 04:23:55;;;;;;;6.68;3.40;;;;;;;;;;5051038;28;20041;-29
2022/05/13 04:26:22;;;;;;;7.43;2.95;;;;;;;;;;5051252;28;20128;-28
2022/05/13 04:28:49;;;;;;;7.38;3.80;;;;;;;;;;5051287;28;20037;-30
2022/05/13 04:31:16;;;;;;;9.10;2.95;;;;;;;;;;5050632;28;20560;-30
2022/05/13 04:33:42;;;;;;;6.78;2.88;;;;;;;;;;5046260;28;20071;-30
2022/05/13 04:36:09;;;;;;;6.28;3.25;;;;;;;;;;5035067;28;20079;-31
2022/05/13 04:38:35;;;;;;;6.28;3.10;;;;;;;;;;5034052;28;20117;-31
2022/05/13 04:42:49;;;;;;;7.82;3.50;;;;;;;;;;5038572;28;20037;-29
2022/05/13 04:43:47;;;;;;;7.68;3.25;;;;;;;;;;5041385;28;20086;-31
2022/05/13 04:46:14;;;;;;;5.97;2.92;;;;;;;;;;5043228;28;20112;-28
2022/05/13 04:48:40;;;;;;;13.15;4.65;;;;;;;;;;5045546;28;20414;-29
2022/05/13 04:51:06;;;;;;;9.90;4.13;;;;;;;;;;5040729;28;20045;-29
2022/05/13 04:53:33;;;;;;;10.18;3.63;;;;;;;;;;5037514;28;20124;-27
2022/05/13 04:56:00;;;;;;;12.10;4.57;;;;;;;;;;5023933;28;20049;-29
2022/05/13 04:58:27;;;;;;;11.57;3.97;;;;;;;;;;5050065;28;20521;-29
2022/05/13 05:00:54;;;;;;;14.13;5.00;;;;;;;;;;5049776;28;20170;-29
2022/05/13 05:03:21;;;;;;;10.07;4.65;;;;;;;;;;5042132;28;20040;-29
2022/05/13 05:05:47;;;;;;;10.32;4.20;;;;;;;;;;5052754;28;20395;-29
2022/05/13 05:08:14;;;;;;;10.00;3.90;;;;;;;;;;5053999;28;20045;-30
2022/05/13 05:10:41;;;;;;;8.57;3.75;;;;;;;;;;5039999;28;20506;-27
2022/05/13 05:13:07;;;;;;;12.30;4.57;;;;;;;;;;5033125;28;20477;-28
2022/05/13 05:15:34;;;;;;;10.48;3.92;;;;;;;;;;5041648;28;20044;-32
2022/05/13 05:18:00;;;;;;;11.52;4.85;;;;;;;;;;5016129;28;20041;-29
2022/05/13 05:20:27;;;;;;;15.05;4.80;;;;;;;;;;5044955;28;20083;-30
2022/05/13 05:22:53;;;;;;;7.55;3.67;;;;;;;;;;5050912;28;21560;-31
2022/05/13 05:25:20;;;;;;;8.60;4.28;;;;;;;;;;5002834;28;20041;-29
2022/05/13 05:27:46;;;;;;;8.63;4.25;;;;;;;;;;5037793;28;20041;-29
2022/05/13 05:30:14;;;;;;;11.68;4.05;;;;;;;;;;5042339;28;20036;-29
2022/05/13 05:32:40;;;;;;;13.23;4.82;;;;;;;;;;5037840;28;20443;-30
2022/05/13 05:35:08;;;;;;;8.45;4.57;;;;;;;;;;5043851;28;20414;-29
2022/05/13 05:37:34;;;;;;;9.25;5.30;;;;;;;;;;5037914;28;20502;-30
2022/05/13 05:40:00;;;;;;;11.40;4.93;;;;;;;;;;5041522;28;20405;-28
2022/05/13 05:42:27;;;;;;;11.68;4.93;;;;;;;;;;5053093;28;20037;-30
2022/05/13 05:44:53;;;;;;;10.00;4.53;;;;;;;;;;5051969;28;20418;-31
2022/05/13 05:47:22;;;;;;;13.90;5.18;;;;;;;;;;5052763;28;20045;-31
2022/05/13 05:49:49;;;;;;;12.18;4.85;;;;;;;;;;5052062;28;20123;-31
2022/05/13 05:52:15;;;;;;;11.98;4.80;;;;;;;;;;5052595;28;20048;-31
2022/05/13 05:57:26;;;;;;;11.10;5.32;;;;;;;;;;5053523;28;20075;-30
2022/05/13 05:59:53;;;;;;;10.45;4.78;;;;;;;;;;5052850;28;20164;-29
2022/05/13 06:02:19;;;;;;;13.27;5.05;;;;;;;;;;5053244;28;20255;-30
2022/05/13 06:04:45;;;;;;;9.95;5.00;;;;;;;;;;5053000;28;20061;-29
2022/05/13 06:07:13;;;;;;;12.93;5.60;;;;;;;;;;5053121;28;20398;-29
2022/05/13 06:09:40;;;;;;;12.10;5.40;;;;;;;;;;5052833;28;20049;-30
2022/05/13 06:12:07;;;;;;;10.43;5.00;;;;;;;;;;5053334;28;20714;-30
2022/05/13 06:14:33;;;;;;;11.95;5.13;;;;;;;;;;5053281;28;20124;-29
2022/05/13 06:17:02;;;;;;;12.20;5.07;;;;;;;;;;5050109;28;20040;-30
2022/05/13 06:19:30;;;;;;;14.45;4.97;;;;;;;;;;5052948;28;20509;-28
2022/05/13 06:21:57;;;;;;;10.82;5.30;;;;;;;;;;5036398;28;20091;-29
2022/05/13 06:24:23;;;;;;;9.77;4.85;;;;;;;;;;5036286;28;20043;-26
2022/05/13 06:26:51;;;;;;;12.27;4.82;;;;;;;;;;5053552;28;20074;-26
2022/05/13 06:29:18;;;;;;;8.43;4.28;;;;;;;;;;5053381;28;20502;-26
2022/05/13 06:31:44;;;;;;;11.73;4.90;;;;;;;;;;5035268;28;20044;-26
2022/05/13 06:34:11;;;;;;;9.27;5.03;;;;;;;;;;5052123;28;20119;-27
2022/05/13 06:36:37;;;;;;;12.52;5.10;;;;;;;;;;5052022;28;20041;-27
2022/05/13 06:39:03;;;;;;;9.57;4.25;;;;;;;;;;5052678;28;20170;-26
2022/05/13 06:41:31;;;;;;;10.55;3.75;;;;;;;;;;5052877;28;20072;-26
2022/05/13 06:43:57;;;;;;;10.80;3.67;;;;;;;;;;5052877;28;20045;-27
2022/05/13 06:46:24;;;;;;;8.20;3.28;;;;;;;;;;5052613;28;20037;-27
2022/05/13 06:48:50;;;;;;;5.07;2.33;;;;;;;;;;5052580;28;20045;-26
2022/05/13 06:51:17;;;;;;;6.55;2.60;;;;;;;;;;5052400;28;20041;-27
2022/05/13 06:53:43;;;;;;;7.72;2.53;;;;;;;;;;5053065;28;20094;-26
2022/05/13 06:56:09;;;;;;;8.75;3.50;;;;;;;;;;5053221;28;20132;-27
2022/05/13 06:58:35;;;;;;;9.05;3.30;;;;;;;;;;5052611;28;20041;-28
2022/05/13 07:01:02;;;;;;;7.75;2.70;;;;;;;;;;5052332;28;20068;-27
2022/05/13 07:03:28;;;;;;;5.82;2.60;;;;;;;;;;5053121;28;20634;-29
2022/05/13 07:05:54;;;;;;;7.22;3.28;;;;;;;;;;5053229;28;20537;-27
2022/05/13 07:08:20;;;;;;;7.25;2.97;;;;;;;;;;5053082;28;20124;-27
2022/05/13 07:10:46;;;;;;;5.65;2.80;;;;;;;;;;5052576;28;20509;-27
2022/05/13 07:13:14;;;;;;;6.75;3.00;;;;;;;;;;5052479;28;20119;-28
2022/05/13 07:15:40;;;;;;;9.55;3.10;;;;;;;;;;5052417;28;20452;-26
2022/05/13 07:18:07;;;;;;;5.30;2.65;;;;;;;;;;5051233;28;20041;-28
2022/05/13 07:20:33;;;;;;;6.32;2.72;;;;;;;;;;5051451;28;20123;-29
2022/05/13 07:22:59;;;;;;;8.15;3.22;;;;;;;;;;5034622;28;20605;-28
2022/05/13 07:25:26;;;;;;;9.35;3.53;;;;;;;;;;5051939;28;20398;-28
2022/05/13 07:27:52;;;;;;;6.72;2.97;;;;;;;;;;5033255;28;20416;-28
2022/05/13 07:30:19;;;;;;;6.03;2.60;;;;;;;;;;5051286;28;20441;-28
2022/05/13 07:32:45;;;;;;;6.15;3.05;;;;;;;;;;5051560;28;20119;-28
2022/05/13 07:35:11;;;;;;;5.35;2.35;;;;;;;;;;5050665;28;20060;-29
2022/05/13 07:37:37;;;;;;;6.93;2.28;;;;;;;;;;5051347;28;20541;-29
2022/05/13 07:42:49;;;;;;;5.63;2.30;;;;;;;;;;5050981;28;20080;-30
2022/05/13 07:45:15;;;;;;;6.25;2.17;;;;;;;;;;5051340;28;20041;-31
2022/05/13 07:47:42;;;;;;;5.03;2.40;;;;;;;;;;5033259;28;20052;-28
2022/05/13 07:50:10;;;;;;;8.55;2.72;;;;;;;;;;5051473;28;20049;-30
2022/05/13 07:52:37;;;;;;;6.05;2.50;;;;;;;;;;5051159;28;20049;-31
2022/05/13 07:55:03;;;;;;;5.85;2.30;;;;;;;;;;5051451;28;20049;-29
2022/05/13 07:57:29;;;;;;;7.72;2.80;;;;;;;;;;5050937;28;20470;-29
2022/05/13 08:02:40;;;;;;;4.70;2.25;;;;;;;;;;5051668;28;20041;-29
2022/05/13 08:05:06;;;;;;;6.20;2.55;;;;;;;;;;5051322;28;20049;-30
2022/05/13 08:07:32;;;;;;;4.63;2.28;;;;;;;;;;5050493;28;20090;-31
2022/05/13 08:09:58;;;;;;;5.45;1.58;;;;;;;;;;5033659;28;20128;-31
2022/05/13 08:12:24;;;;;;;7.38;2.05;;;;;;;;;;5050984;28;20052;-29
2022/05/13 08:14:50;;;;;;;4.40;2.00;;;;;;;;;;5051176;28;20041;-30
2022/05/13 08:17:16;;;;;;;9.75;2.33;;;;;;;;;;5051230;28;20064;-28
2022/05/13 08:19:43;;;;;;;7.30;2.08;;;;;;;;;;5033156;28;20481;-29
2022/05/13 08:22:09;;;;;;;8.07;1.83;;;;;;;;;;5050575;28;20095;-29
2022/05/13 08:24:35;;;;;;;4.85;1.80;;;;;;;;;;5051110;28;20475;-32
2022/05/13 08:27:01;;;;;;;4.72;2.00;;;;;;;;;;5050889;28;20029;-31
2022/05/13 08:29:27;;;;;;;5.05;1.65;;;;;;;;;;5050707;28;20048;-31
2022/05/13 08:31:53;;;;;;;5.75;1.92;;;;;;;;;;5050600;28;20037;-28
2022/05/13 08:34:19;;;;;;;3.80;1.48;;;;;;;;;;5049619;28;20040;-29
2022/05/13 08:36:46;;;;;;;4.28;1.88;;;;;;;;;;5051189;28;20036;-30
2022/05/13 08:39:12;;;;;;;5.55;1.63;;;;;;;;;;5050427;28;20122;-31
2022/05/13 08:42:04;;;;;;;2.70;1.60;;;;;;;;;;5054478;28;20090;-30
2022/05/13 08:44:31;;;;;;;6.53;1.88;;;;;;;;;;5055185;28;20044;-29
2022/05/13 08:47:02;;;;;;;6.47;1.42;;;;;;;;;;5055070;28;20044;-30
2022/05/13 08:49:48;;;;;;;3.88;1.70;;;;;;;;;;5054827;28;20060;-29
2022/05/13 08:55:19;;;;;;;4.78;1.45;;;;;;;;;;5046317;28;20048;-31
2022/05/13 08:57:47;;;;;;;4.30;1.95;;;;;;;;;;5053486;28;20092;-30
2022/05/13 09:00:34;;;;;;;3.55;1.63;;;;;;;;;;5054604;28;20069;-31
2022/05/13 09:03:17;;;;;;;6.30;1.80;;;;;;;;;;5054396;28;20120;-31
2022/05/13 09:05:47;;;;;;;3.90;1.60;;;;;;;;;;5053899;28;20455;-32
2022/05/13 09:08:13;;;;;;;3.05;1.40;;;;;;;;;;5054169;28;20033;-32
2022/05/13 09:10:46;;;;;;;3.72;1.70;;;;;;;;;;5054383;28;20502;-30
2022/05/13 09:13:15;;;;;;;7.23;2.03;;;;;;;;;;5054551;28;20045;-29
2022/05/13 09:15:49;;;;;;;5.53;1.83;;;;;;;;;;5054243;28;20052;-30
2022/05/13 09:18:33;;;;;;;3.95;1.50;;;;;;;;;;5053875;28;20174;-30
2022/05/13 09:21:02;;;;;;;3.13;1.10;;;;;;;;;;5054202;28;20076;-31
2022/05/13 09:23:28;;;;;;;3.60;1.40;;;;;;;;;;5043150;28;20045;-31
2022/05/13 09:26:06;;;;;;;3.10;1.30;;;;;;;;;;5039328;28;21165;-29
2022/05/13 09:28:35;;;;;;;5.28;1.45;;;;;;;;;;5040564;28;20363;-29
2022/05/13 09:31:17;;;;;;;6.80;2.20;;;;;;;;;;5053679;28;20398;-30
2022/05/13 09:33:47;;;;;;;3.58;1.40;;;;;;;;;;5054849;28;20410;-30
2022/05/13 09:36:22;;;;;;;4.45;1.77;;;;;;;;;;5054001;28;20045;-30
2022/05/13 09:38:55;;;;;;;2.88;1.50;;;;;;;;;;5052795;28;20041;-30
2022/05/13 09:41:26;;;;;;;5.15;1.83;;;;;;;;;;5053333;28;20044;-31
2022/05/13 09:43:57;;;;;;;3.97;1.77;;;;;;;;;;5040106;28;20034;-30
2022/05/13 09:46:24;;;;;;;4.43;1.60;;;;;;;;;;5035181;28;20067;-30
2022/05/13 09:49:01;;;;;;;2.97;1.60;;;;;;;;;;5033358;28;20560;-31
2022/05/13 09:51:36;;;;;;;5.70;1.70;;;;;;;;;;5035628;28;20037;-30
2022/05/13 09:54:04;;;;;;;5.15;1.48;;;;;;;;;;5052386;28;20090;-30
2022/05/13 09:56:40;;;;;;;4.97;1.55;;;;;;;;;;5033422;28;20518;-32
2022/05/13 09:59:14;;;;;;;4.60;2.00;;;;;;;;;;5033046;28;20128;-30
2022/05/13 10:01:41;;;;;;;2.63;1.30;;;;;;;;;;5032908;28;20102;-30
2022/05/13 10:04:19;;;;;;;6.53;1.30;;;;;;;;;;5052764;28;20041;-28
2022/05/13 10:06:47;;;;;;;1.85;1.30;;;;;;;;;;5046592;28;20498;-31
2022/05/13 10:15:08;;;;;;;4.63;1.60;;;;;;;;;;5053274;28;20040;-29
2022/05/13 10:17:37;;;;;;;4.60;1.70;;;;;;;;;;5049175;28;20049;-32
2022/05/13 10:20:11;;;;;;;7.07;2.10;;;;;;;;;;5033771;28;20052;-32
2022/05/13 10:22:47;;;;;;;3.38;1.70;;;;;;;;;;5029287;28;20052;-30
2022/05/13 10:25:17;;;;;;;4.72;1.80;;;;;;;;;;5034373;28;20044;-31
2022/05/13 10:27:44;;;;;;;2.97;1.20;;;;;;;;;;5052869;28;20371;-30
2022/05/13 10:30:13;;;;;;;5.20;1.38;;;;;;;;;;5052704;28;20051;-30
2022/05/13 10:32:42;;;;;;;3.97;1.40;;;;;;;;;;5043311;28;20088;-30
2022/05/13 10:35:10;;;;;;;6.43;1.65;;;;;;;;;;5032802;28;20042;-30
2022/05/13 10:37:45;;;;;;;5.90;1.52;;;;;;;;;;5032439;28;20041;-31
2022/05/13 10:40:12;;;;;;;6.13;1.30;;;;;;;;;;5032742;28;20068;-28
2022/05/13 10:42:44;;;;;;;8.95;1.42;;;;;;;;;;5041762;28;20044;-30
2022/05/13 10:45:17;;;;;;;8.55;1.90;;;;;;;;;;5052770;28;20049;-31
2022/05/13 10:48:03;;;;;;;6.65;1.75;;;;;;;;;;5051751;28;20153;-30
2022/05/13 10:50:48;;;;;;;3.80;1.50;;;;;;;;;;5042259;28;20044;-32
2022/05/13 10:53:18;;;;;;;4.22;1.40;;;;;;;;;;5034325;28;20087;-32
2022/05/13 10:55:50;;;;;;;6.05;1.73;;;;;;;;;;5052409;28;20049;-31
2022/05/13 10:58:19;;;;;;;2.13;1.80;;;;;;;;;;5042853;28;20057;-31
2022/05/13 11:01:00;;;;;;;4.68;2.00;;;;;;;;;;5052269;28;20080;-30
2022/05/13 11:03:32;;;;;;;5.00;1.92;;;;;;;;;;5051334;28;20486;-32
2022/05/13 11:06:17;;;;;;;5.00;2.08;;;;;;;;;;5051081;28;20033;-31
2022/05/13 11:09:06;;;;;;;6.80;1.80;;;;;;;;;;5045938;28;20045;-30
2022/05/13 11:11:41;;;;;;;6.07;1.98;;;;;;;;;;5049245;28;20398;-32
2022/05/13 11:14:20;;;;;;;3.72;2.22;;;;;;;;;;5044011;28;20040;-30
2022/05/13 11:16:52;;;;;;;4.40;1.83;;;;;;;;;;5051916;28;20494;-32
2022/05/13 11:19:31;;;;;;;4.57;2.08;;;;;;;;;;5050991;28;20037;-31
2022/05/13 11:22:22;;;;;;;4.82;2.20;;;;;;;;;;5052063;28;20489;-33
2022/05/13 11:27:58;;;;;;;3.40;1.90;;;;;;;;;;5026792;28;20261;-31
2022/05/13 11:30:27;;;;;;;4.13;1.80;;;;;;;;;;5051172;28;20048;-31
2022/05/13 11:32:56;;;;;;;4.32;1.70;;;;;;;;;;5048185;28;20052;-31
2022/05/13 11:35:38;;;;;;;5.78;1.70;;;;;;;;;;5040723;28;20127;-30
2022/05/13 11:38:10;;;;;;;4.97;1.85;;;;;;;;;;5036489;28;20077;-32
2022/05/13 11:40:59;;;;;;;6.05;1.92;;;;;;;;;;5039976;28;20045;-31
2022/05/13 11:43:26;;;;;;;3.45;1.77;;;;;;;;;;5032500;28;20080;-31
2022/05/13 11:45:55;;;;;;;3.67;2.05;;;;;;;;;;5039660;28;20079;-31
2022/05/13 11:48:32;;;;;;;5.47;2.40;;;;;;;;;;5033667;28;20051;-31
2022/05/13 11:51:06;;;;;;;4.95;1.95;;;;;;;;;;5051585;28;20072;-31
2022/05/13 11:53:41;;;;;;;6.13;2.08;;;;;;;;;;5051306;28;20134;-31
2022/05/13 11:56:30;;;;;;;8.75;2.17;;;;;;;;;;5050666;28;20041;-32
2022/05/13 11:59:10;;;;;;;6.55;2.10;;;;;;;;;;5030644;28;20402;-32
2022/05/13 12:01:37;;;;;;;5.13;2.13;;;;;;;;;;5030575;28;20545;-31
2022/05/13 12:04:23;;;;;;;3.22;1.75;;;;;;;;;;5031155;28;20061;-32
2022/05/13 12:06:49;;;;;;;6.20;2.40;;;;;;;;;;5046981;28;20450;-31
2022/05/13 12:09:34;;;;;;;6.80;2.25;;;;;;;;;;5050861;28;20040;-32
2022/05/13 12:12:00;;;;;;;5.97;1.88;;;;;;;;;;5051347;28;20045;-31
2022/05/13 12:14:27;;;;;;;6.68;2.10;;;;;;;;;;5050687;28;20048;-29
2022/05/13 12:17:05;;;;;;;5.47;1.65;;;;;;;;;;5034600;28;20045;-29
2022/05/13 12:19:49;;;;;;;8.07;2.17;;;;;;;;;;5034845;28;20095;-31
2022/05/13 12:22:30;;;;;;;5.95;2.20;;;;;;;;;;5051386;28;20511;-30
2022/05/13 12:24:56;;;;;;;4.20;2.03;;;;;;;;;;5051442;28;20509;-31
2022/05/13 12:27:31;;;;;;;6.80;2.50;;;;;;;;;;5051160;28;20071;-32
2022/05/13 12:30:00;;;;;;;4.72;2.10;;;;;;;;;;5050810;28;20132;-31
2022/05/13 12:32:43;;;;;;;4.85;1.95;;;;;;;;;;5050991;28;20043;-31
2022/05/13 12:37:56;;;;;;;4.95;1.95;;;;;;;;;;5050799;28;20499;-32
2022/05/13 12:40:22;;;;;;;8.82;2.35;;;;;;;;;;5051148;28;20033;-30
2022/05/13 12:42:51;;;;;;;8.23;2.63;;;;;;;;;;5051055;28;20082;-34
2022/05/13 12:45:21;;;;;;;9.68;2.35;;;;;;;;;;5050497;28;20033;-30
2022/05/13 12:47:53;;;;;;;7.13;1.65;;;;;;;;;;5051291;28;20519;-32
2022/05/13 12:50:28;;;;;;;6.93;2.00;;;;;;;;;;5033474;28;20514;-32
2022/05/13 12:52:55;;;;;;;8.25;2.05;;;;;;;;;;5041231;28;20045;-30
2022/05/13 12:55:23;;;;;;;5.05;1.50;;;;;;;;;;5037301;28;20041;-30
2022/05/13 12:57:53;;;;;;;6.70;1.70;;;;;;;;;;5045790;28;20440;-30
2022/05/13 13:00:22;;;;;;;3.85;1.60;;;;;;;;;;5041418;28;20129;-30
2022/05/13 13:02:53;;;;;;;8.40;2.28;;;;;;;;;;5030521;28;20052;-31
2022/05/13 13:05:24;;;;;;;4.45;1.58;;;;;;;;;;5029192;28;20037;-30
2022/05/13 13:07:55;;;;;;;23.15;13.57;;;;;;;;;;5006175;28;20053;-31
2022/05/13 13:10:22;;;;;;;28.45;14.80;;;;;;;;;;5006558;28;20513;-30
2022/05/13 13:13:00;;;;;;;18.80;10.13;;;;;;;;;;5037325;28;20080;-32
2022/05/13 13:15:41;;;;;;;9.15;3.35;;;;;;;;;;5042841;28;20036;-31
2022/05/13 13:18:09;;;;;;;4.50;1.92;;;;;;;;;;5035521;28;20037;-31
2022/05/13 13:20:45;;;;;;;4.82;1.80;;;;;;;;;;5036146;28;20048;-32
2022/05/13 13:23:14;;;;;;;5.43;1.75;;;;;;;;;;5035173;28;20465;-31
2022/05/13 13:25:44;;;;;;;4.32;1.50;;;;;;;;;;5035746;28;20048;-30
2022/05/13 13:28:13;;;;;;;5.45;1.70;;;;;;;;;;5034043;28;20056;-31
2022/05/13 13:30:46;;;;;;;4.90;1.73;;;;;;;;;;5036801;28;20075;-31
2022/05/13 13:33:12;;;;;;;6.15;1.38;;;;;;;;;;5022430;28;20044;-32
2022/05/13 13:35:44;;;;;;;4.00;1.08;;;;;;;;;;5035393;28;20049;-32
2022/05/13 13:38:11;;;;;;;4.18;1.48;;;;;;;;;;5042710;28;20448;-32
2022/05/13 13:40:39;;;;;;;4.20;1.60;;;;;;;;;;5053506;28;20505;-32
2022/05/13 13:43:11;;;;;;;4.63;1.50;;;;;;;;;;5052008;28;20037;-31
2022/05/13 13:45:37;;;;;;;3.75;1.30;;;;;;;;;;5054871;28;20048;-33
2022/05/13 13:48:07;;;;;;;3.17;1.70;;;;;;;;;;5054146;28;20057;-32
2022/05/13 13:50:33;;;;;;;5.97;1.70;;;;;;;;;;5054520;28;20127;-33
2022/05/13 13:53:00;;;;;;;3.92;1.63;;;;;;;;;;5053184;28;20048;-30
2022/05/13 13:55:26;;;;;;;5.43;2.03;;;;;;;;;;5053537;28;20128;-31
2022/05/13 13:58:00;;;;;;;4.43;1.40;;;;;;;;;;5019049;28;20048;-31
2022/05/13 14:00:33;;;;;;;3.92;2.03;;;;;;;;;;5053766;28;20040;-31
2022/05/13 14:03:04;;;;;;;6.30;1.83;;;;;;;;;;5052140;28;20044;-31
2022/05/13 14:05:31;;;;;;;7.22;1.70;;;;;;;;;;5033162;28;20048;-31
2022/05/13 14:07:58;;;;;;;5.53;1.70;;;;;;;;;;5034041;28;20092;-30
2022/05/13 14:10:43;;;;;;;5.93;1.50;;;;;;;;;;5034615;28;20399;-31
2022/05/13 14:13:10;;;;;;;4.53;1.95;;;;;;;;;;5051438;28;20045;-31
2022/05/13 14:15:41;;;;;;;4.70;1.63;;;;;;;;;;5053043;28;20052;-32
2022/05/13 14:18:10;;;;;;;7.15;2.20;;;;;;;;;;5053392;28;20455;-33
2022/05/13 14:20:37;;;;;;;5.80;1.77;;;;;;;;;;5053347;28;20037;-31
2022/05/13 14:23:07;;;;;;;10.77;2.45;;;;;;;;;;5053336;28;20045;-30
2022/05/13 14:25:35;;;;;;;4.13;2.30;;;;;;;;;;5031543;28;20045;-31
2022/05/13 14:28:01;;;;;;;5.60;1.90;;;;;;;;;;5023899;28;20403;-32
2022/05/13 14:30:32;;;;;;;6.80;2.10;;;;;;;;;;5044915;28;20066;-31
2022/05/13 14:32:59;;;;;;;5.53;1.80;;;;;;;;;;5052390;28;20059;-30
2022/05/13 14:35:43;;;;;;;8.20;2.03;;;;;;;;;;5053478;28;20123;-32
2022/05/13 14:38:10;;;;;;;6.15;1.90;;;;;;;;;;5051763;28;20136;-30
2022/05/13 14:40:54;;;;;;;5.35;1.90;;;;;;;;;;5052981;28;20116;-30
2022/05/13 14:43:27;;;;;;;6.30;1.83;;;;;;;;;;5033464;28;20045;-31
2022/05/13 14:45:56;;;;;;;;;;;;;;;;;;4999767;28;20487;-31
2022/05/13 14:48:26;;;;;;;5.50;1.83;;;;;;;;;;5032915;28;19917;-30
2022/05/13 14:51:00;;;;;;;5.60;1.98;;;;;;;;;;5033228;28;20491;-32
2022/05/13 14:53:29;;;;;;;3.97;2.10;;;;;;;;;;5034171;28;20049;-32
2022/05/13 14:55:56;;;;;;;4.05;1.70;;;;;;;;;;5035433;28;20421;-32
2022/05/13 14:58:25;;;;;;;7.68;2.13;;;;;;;;;;5052679;28;20052;-29
2022/05/13 15:00:53;;;;;;;4.95;1.90;;;;;;;;;;5052896;28;20044;-33
2022/05/13 15:03:24;;;;;;;3.40;1.80;;;;;;;;;;5052695;28;20492;-32
2022/05/13 15:05:51;;;;;;;7.75;2.00;;;;;;;;;;5018320;28;20518;-32
2022/05/13 15:08:36;;;;;;;3.40;1.50;;;;;;;;;;5052388;28;20120;-30
2022/05/13 15:11:03;;;;;;;4.43;2.03;;;;;;;;;;5052383;28;20067;-30
2022/05/13 15:13:29;;;;;;;3.78;1.90;;;;;;;;;;5052065;28;20037;-32
2022/05/13 15:15:55;;;;;;;3.65;2.08;;;;;;;;;;5052338;28;20391;-30
2022/05/13 15:18:24;;;;;;;5.95;2.03;;;;;;;;;;5052384;28;20037;-35
2022/05/13 15:20:51;;;;;;;4.80;2.00;;;;;;;;;;5039623;28;20064;-32
2022/05/13 15:23:18;;;;;;;4.00;1.95;;;;;;;;;;5042737;28;20043;-29
2022/05/13 15:25:48;;;;;;;7.32;2.08;;;;;;;;;;5034277;28;20032;-32
2022/05/13 15:28:16;;;;;;;7.32;2.20;;;;;;;;;;5051569;28;20520;-33